createdAt,value
2019-05-07T00:01:59.485Z,50.80
2019-05-07T00:04:28.806Z,50.80
2019-05-07T00:06:58.183Z,50.90
2019-05-07T00:09:27.443Z,50.90
2019-05-07T00:11:56.709Z,51.00
2019-05-07T00:14:26.544Z,51.10
2019-05-07T00:16:55.815Z,51.20
2019-05-07T00:19:25.066Z,51.40
2019-05-07T00:21:54.431Z,51.30
2019-05-07T00:24:23.719Z,51.20
2019-05-07T00:26:53.330Z,51.50
2019-05-07T00:29:23.011Z,51.50
2019-05-07T00:31:52.366Z,51.60
2019-05-07T00:34:23.634Z,51.40
2019-05-07T00:37:17.983Z,51.60
2019-05-07T00:39:54.511Z,51.70
2019-05-07T00:42:32.720Z,51.70
2019-05-07T00:45:17.031Z,51.70
2019-05-07T00:47:37.513Z,51.70
2019-05-07T00:50:12.965Z,51.60
2019-05-07T00:52:43.090Z,51.70
2019-05-07T00:55:12.459Z,51.70
2019-05-07T00:57:42.896Z,51.70
2019-05-07T01:00:13.167Z,51.60
2019-05-07T01:02:43.166Z,51.60
2019-05-07T01:05:12.547Z,51.60
2019-05-07T01:07:42.020Z,51.60
2019-05-07T01:10:12.705Z,51.60
2019-05-07T01:12:54.734Z,51.40
2019-05-07T01:15:31.005Z,51.40
2019-05-07T01:17:55.305Z,51.50
2019-05-07T01:20:24.523Z,51.60
2019-05-07T01:22:54.660Z,51.60
2019-05-07T01:25:24.882Z,51.60
2019-05-07T01:27:54.074Z,51.60
2019-05-07T01:30:23.348Z,51.70
2019-05-07T01:32:57.706Z,51.70
2019-05-07T01:35:45.915Z,51.60
2019-05-07T01:38:16.938Z,51.80
2019-05-07T01:40:46.254Z,51.70
2019-05-07T01:43:15.752Z,51.80
2019-05-07T01:45:49.547Z,52.00
2019-05-07T01:48:16.682Z,52.10
2019-05-07T01:50:45.942Z,52.10
2019-05-07T01:53:15.309Z,52.30
2019-05-07T01:55:44.536Z,52.30
2019-05-07T01:58:13.828Z,52.30
2019-05-07T02:00:53.060Z,52.30
2019-05-07T02:03:28.155Z,52.50
2019-05-07T02:06:04.095Z,52.50
2019-05-07T02:08:55.154Z,52.50
2019-05-07T02:11:29.989Z,52.70
2019-05-07T02:13:59.337Z,52.60
2019-05-07T02:16:28.598Z,52.80
2019-05-07T02:18:57.911Z,52.90
2019-05-07T02:21:27.413Z,52.80
2019-05-07T02:23:57.005Z,52.90
2019-05-07T02:26:26.430Z,52.80
2019-05-07T02:28:56.005Z,52.90
2019-05-07T02:31:25.279Z,52.90
2019-05-07T02:33:54.556Z,53.00
2019-05-07T02:36:24.113Z,53.00
2019-05-07T02:39:03.945Z,53.00
2019-05-07T02:41:35.794Z,53.00
2019-05-07T02:44:05.118Z,53.00
2019-05-07T02:47:05.309Z,53.20
2019-05-07T02:49:53.622Z,53.30
2019-05-07T02:52:43.810Z,53.40
2019-05-07T02:55:19.541Z,53.30
2019-05-07T02:57:48.905Z,53.30
2019-05-07T03:00:19.482Z,53.50
2019-05-07T03:02:48.939Z,53.40
2019-05-07T03:05:18.319Z,53.40
2019-05-07T03:07:47.495Z,53.50
2019-05-07T03:10:17.015Z,53.60
2019-05-07T03:12:46.267Z,53.60
2019-05-07T03:15:15.836Z,53.60
2019-05-07T03:17:45.110Z,53.80
2019-05-07T03:20:18.217Z,53.90
2019-05-07T03:22:47.643Z,53.90
2019-05-07T03:25:23.094Z,54.00
2019-05-07T03:27:53.609Z,54.00
2019-05-07T03:30:45.351Z,54.10
2019-05-07T03:33:25.537Z,54.00
2019-05-07T03:35:56.196Z,54.10
2019-05-07T03:38:24.484Z,54.30
2019-05-07T03:40:53.777Z,54.30
2019-05-07T03:43:24.628Z,54.60
2019-05-07T03:46:07.748Z,54.70
2019-05-07T03:48:38.348Z,54.60
2019-05-07T03:51:07.687Z,54.60
2019-05-07T03:53:37.033Z,54.70
2019-05-07T03:56:25.584Z,54.70
2019-05-07T03:58:55.005Z,54.70
2019-05-07T04:01:24.439Z,54.70
2019-05-07T04:03:53.925Z,54.70
2019-05-07T04:06:23.597Z,54.80
2019-05-07T04:08:53.360Z,54.80
2019-05-07T04:11:23.196Z,55.00
2019-05-07T04:13:53.478Z,54.90
2019-05-07T04:16:24.256Z,55.10
2019-05-07T04:18:53.675Z,54.90
2019-05-07T04:21:23.340Z,55.30
2019-05-07T04:24:13.491Z,55.00
2019-05-07T04:26:45.216Z,55.00
2019-05-07T04:29:16.620Z,55.00
2019-05-07T04:31:45.908Z,55.00
2019-05-07T04:34:23.836Z,55.20
2019-05-07T04:36:53.461Z,55.20
2019-05-07T04:39:23.476Z,55.30
2019-05-07T04:41:53.149Z,55.20
2019-05-07T04:44:23.550Z,55.30
2019-05-07T04:46:53.598Z,55.30
2019-05-07T04:49:24.060Z,55.30
2019-05-07T04:52:23.654Z,55.20
2019-05-07T04:54:52.833Z,55.30
2019-05-07T04:57:28.314Z,55.40
2019-05-07T05:00:02.951Z,55.30
2019-05-07T05:02:52.734Z,55.30
2019-05-07T05:05:23.658Z,55.40
2019-05-07T05:07:53.418Z,55.30
2019-05-07T05:10:23.377Z,55.40
2019-05-07T05:12:53.734Z,55.40
2019-05-07T05:15:23.548Z,55.40
2019-05-07T05:17:54.104Z,55.60
2019-05-07T05:20:33.485Z,55.50
2019-05-07T05:23:15.853Z,55.60
2019-05-07T05:25:45.206Z,55.60
2019-05-07T05:28:15.049Z,55.50
2019-05-07T05:30:49.087Z,55.60
2019-05-07T05:33:18.353Z,55.60
2019-05-07T05:35:52.571Z,55.60
2019-05-07T05:38:22.343Z,55.70
2019-05-07T05:40:52.212Z,55.80
2019-05-07T05:43:39.142Z,55.80
2019-05-07T05:46:08.690Z,55.80
2019-05-07T05:48:38.089Z,55.90
2019-05-07T05:51:25.450Z,55.90
2019-05-07T05:54:01.894Z,56.00
2019-05-07T05:56:51.846Z,56.00
2019-05-07T05:59:49.072Z,55.80
2019-05-07T06:02:32.411Z,56.00
2019-05-07T06:05:35.990Z,55.90
2019-05-07T06:08:24.231Z,55.60
2019-05-07T06:11:15.548Z,55.90
2019-05-07T06:13:52.748Z,55.80
2019-05-07T06:16:25.788Z,55.70
2019-05-07T06:19:02.936Z,55.70
2019-05-07T06:21:52.467Z,54.80
2019-05-07T06:24:32.746Z,54.60
2019-05-07T06:27:02.926Z,54.40
2019-05-07T06:29:32.989Z,54.40
2019-05-07T06:32:05.103Z,54.30
2019-05-07T06:34:34.402Z,54.40
2019-05-07T06:37:03.789Z,54.20
2019-05-07T06:39:42.037Z,54.10
2019-05-07T06:42:28.595Z,53.90
2019-05-07T06:45:15.109Z,53.70
2019-05-07T06:47:44.502Z,53.50
2019-05-07T06:50:21.943Z,53.50
2019-05-07T06:52:51.894Z,53.50
2019-05-07T06:55:22.808Z,53.50
2019-05-07T06:57:53.158Z,53.30
2019-05-07T07:01:03.566Z,53.00
2019-05-07T07:03:56.224Z,52.80
2019-05-07T07:06:28.295Z,52.60
2019-05-07T07:09:28.691Z,52.40
2019-05-07T07:12:02.007Z,52.30
2019-05-07T07:14:33.201Z,52.20
2019-05-07T07:17:03.004Z,51.90
2019-05-07T07:19:36.139Z,51.80
2019-05-07T07:22:04.804Z,51.40
2019-05-07T07:24:35.055Z,51.30
2019-05-07T07:27:05.411Z,51.10
2019-05-07T07:29:41.725Z,51.10
2019-05-07T07:32:12.782Z,51.00
2019-05-07T07:34:48.045Z,51.20
2019-05-07T07:37:27.861Z,51.10
2019-05-07T07:40:19.277Z,51.30
2019-05-07T07:42:51.933Z,50.90
2019-05-07T07:45:22.994Z,50.70
2019-05-07T07:47:53.899Z,51.00
2019-05-07T07:50:24.298Z,51.40
2019-05-07T07:52:54.694Z,51.60
2019-05-07T07:55:42.495Z,51.40
2019-05-07T07:58:26.349Z,51.00
2019-05-07T08:01:12.252Z,50.80
2019-05-07T08:03:45.936Z,50.70
2019-05-07T08:06:16.007Z,50.80
2019-05-07T08:08:47.350Z,50.40
2019-05-07T08:11:17.636Z,50.00
2019-05-07T08:13:49.369Z,50.10
2019-05-07T08:16:22.095Z,50.30
2019-05-07T08:18:52.204Z,50.50
2019-05-07T08:21:22.925Z,50.90
2019-05-07T08:23:53.593Z,51.00
2019-05-07T08:26:24.797Z,51.40
2019-05-07T08:28:54.923Z,51.40
2019-05-07T08:31:32.452Z,51.40
2019-05-07T08:34:13.857Z,51.80
2019-05-07T08:36:42.826Z,51.90
2019-05-07T08:39:13.173Z,51.90
2019-05-07T08:41:52.713Z,51.90
2019-05-07T08:44:27.691Z,51.70
2019-05-07T08:47:23.113Z,51.40
2019-05-07T08:49:54.035Z,51.40
2019-05-07T08:52:26.153Z,51.50
2019-05-07T08:54:56.302Z,51.30
2019-05-07T08:57:45.962Z,51.30
2019-05-07T09:00:17.877Z,51.30
2019-05-07T09:02:48.068Z,51.40
2019-05-07T09:05:17.625Z,51.20
2019-05-07T09:07:47.600Z,50.80
2019-05-07T09:10:17.946Z,50.40
2019-05-07T09:12:48.275Z,50.40
2019-05-07T09:15:18.941Z,50.40
2019-05-07T09:17:49.312Z,50.40
2019-05-07T09:20:18.866Z,50.30
2019-05-07T09:22:48.432Z,50.20
2019-05-07T09:25:17.996Z,50.10
2019-05-07T09:27:52.203Z,49.50
2019-05-07T09:30:56.244Z,49.50
2019-05-07T09:33:33.705Z,49.10
2019-05-07T09:36:04.548Z,49.10
2019-05-07T09:38:34.963Z,48.90
2019-05-07T09:41:04.443Z,48.90
2019-05-07T09:43:34.521Z,48.80
2019-05-07T09:46:04.674Z,48.80
2019-05-07T09:48:34.638Z,48.50
2019-05-07T09:51:04.079Z,48.50
2019-05-07T09:53:36.732Z,48.70
2019-05-07T09:56:07.084Z,48.50
2019-05-07T09:58:39.231Z,48.30
2019-05-07T10:01:08.772Z,48.30
2019-05-07T10:03:42.873Z,48.80
2019-05-07T10:06:15.137Z,48.60
2019-05-07T10:08:47.729Z,48.30
2019-05-07T10:11:27.392Z,48.60
2019-05-07T10:14:02.733Z,48.30
2019-05-07T10:16:41.836Z,48.40
2019-05-07T10:19:12.828Z,48.30
2019-05-07T10:21:43.008Z,48.40
2019-05-07T10:24:15.421Z,48.40
2019-05-07T10:26:45.643Z,48.20
2019-05-07T10:29:16.445Z,48.50
2019-05-07T10:31:46.655Z,48.30
2019-05-07T10:34:16.856Z,48.60
2019-05-07T10:36:47.361Z,48.10
2019-05-07T10:39:18.331Z,48.10
2019-05-07T10:41:49.735Z,47.50
2019-05-07T10:44:22.910Z,48.50
2019-05-07T10:47:12.121Z,48.10
2019-05-07T10:49:47.379Z,48.40
2019-05-07T10:52:18.241Z,48.40
2019-05-07T10:54:59.029Z,48.00
2019-05-07T10:57:21.908Z,47.80
2019-05-07T10:59:52.343Z,47.70
2019-05-07T11:02:27.604Z,47.80
2019-05-07T11:04:57.521Z,47.90
2019-05-07T11:07:27.889Z,48.40
2019-05-07T11:09:57.721Z,48.40
2019-05-07T11:12:32.040Z,48.10
2019-05-07T11:15:02.372Z,47.80
2019-05-07T11:17:52.107Z,47.70
2019-05-07T11:20:22.846Z,47.40
2019-05-07T11:22:52.892Z,47.70
2019-05-07T11:25:24.375Z,47.80
2019-05-07T11:27:54.750Z,47.60
2019-05-07T11:30:24.784Z,47.70
2019-05-07T11:32:57.400Z,47.30
2019-05-07T11:35:32.043Z,48.00
2019-05-07T11:38:10.934Z,48.00
2019-05-07T11:40:34.793Z,47.90
2019-05-07T11:43:13.041Z,47.60
2019-05-07T11:45:54.008Z,46.90
2019-05-07T11:48:24.338Z,46.20
2019-05-07T11:51:12.278Z,46.10
2019-05-07T11:54:02.104Z,44.80
2019-05-07T11:56:32.945Z,43.70
2019-05-07T11:59:04.642Z,42.90
2019-05-07T12:01:47.189Z,42.40
2019-05-07T12:04:16.435Z,41.50
2019-05-07T12:06:49.293Z,41.10
2019-05-07T12:12:47.896Z,39.70
2019-05-07T12:15:21.734Z,40.10
2019-05-07T12:17:54.035Z,40.30
2019-05-07T12:20:24.036Z,38.60
2019-05-07T12:22:54.031Z,37.80
2019-05-07T12:25:23.859Z,37.00
2019-05-07T12:27:53.814Z,36.70
2019-05-07T12:30:46.088Z,35.60
2019-05-07T12:33:37.293Z,35.20
2019-05-07T12:36:08.530Z,34.90
2019-05-07T12:38:37.837Z,34.90
2019-05-07T12:41:25.851Z,34.80
2019-05-07T12:43:55.679Z,34.20
2019-05-07T12:46:25.617Z,34.10
2019-05-07T12:48:58.813Z,34.00
2019-05-07T12:51:36.523Z,33.50
2019-05-07T12:54:18.599Z,33.20
2019-05-07T12:56:48.411Z,32.90
2019-05-07T12:59:18.246Z,31.80
2019-05-07T13:02:21.404Z,31.70
2019-05-07T13:04:41.765Z,31.20
2019-05-07T13:07:29.253Z,31.10
2019-05-07T13:09:59.911Z,31.00
2019-05-07T13:12:57.263Z,30.00
2019-05-07T13:15:28.714Z,30.00
2019-05-07T13:17:58.335Z,30.00
2019-05-07T13:20:42.097Z,29.40
2019-05-07T13:23:14.735Z,28.70
2019-05-07T13:25:46.245Z,28.70
2019-05-07T13:28:15.744Z,28.70
2019-05-07T13:30:52.606Z,29.00
2019-05-07T13:33:24.266Z,28.80
2019-05-07T13:35:53.769Z,28.50
2019-05-07T13:38:54.258Z,28.80
2019-05-07T13:41:46.588Z,28.00
2019-05-07T13:44:26.835Z,27.90
2019-05-07T13:47:15.475Z,27.80
2019-05-07T13:49:45.198Z,28.10
2019-05-07T13:52:14.548Z,27.40
2019-05-07T13:54:46.156Z,27.00
2019-05-07T13:57:16.108Z,27.00
2019-05-07T13:59:46.133Z,27.20
2019-05-07T14:02:16.670Z,28.40
2019-05-07T14:04:46.534Z,28.90
2019-05-07T14:07:16.516Z,28.90
2019-05-07T14:09:46.915Z,28.50
2019-05-07T14:12:16.248Z,28.30
2019-05-07T14:14:46.261Z,28.10
2019-05-07T14:17:15.624Z,28.10
2019-05-07T14:19:44.966Z,27.90
2019-05-07T14:22:24.372Z,28.00
2019-05-07T14:24:54.257Z,27.50
2019-05-07T14:27:23.601Z,27.30
2019-05-07T14:29:53.123Z,27.00
2019-05-07T14:32:34.926Z,26.40
2019-05-07T14:35:32.581Z,26.70
2019-05-07T14:38:13.637Z,26.80
2019-05-07T14:40:43.761Z,26.40
2019-05-07T14:43:19.409Z,26.10
2019-05-07T14:46:06.191Z,26.10
2019-05-07T14:48:36.446Z,26.10
2019-05-07T14:51:06.153Z,26.20
2019-05-07T14:53:35.810Z,26.10
2019-05-07T14:56:05.435Z,25.50
2019-05-07T14:58:35.151Z,25.40
2019-05-07T15:01:04.640Z,25.70
2019-05-07T15:03:35.051Z,25.80
2019-05-07T15:06:04.603Z,26.00
2019-05-07T15:08:33.998Z,25.70
2019-05-07T15:11:03.376Z,25.80
2019-05-07T15:13:32.878Z,26.30
2019-05-07T15:16:03.083Z,26.60
2019-05-07T15:18:52.746Z,27.10
2019-05-07T15:21:23.452Z,27.40
2019-05-07T15:23:54.669Z,27.40
2019-05-07T15:26:53.519Z,27.30
2019-05-07T15:29:25.510Z,26.70
2019-05-07T15:32:05.116Z,26.30
2019-05-07T15:34:34.466Z,26.40
2019-05-07T15:37:08.220Z,26.60
2019-05-07T15:39:42.108Z,26.90
2019-05-07T15:42:15.899Z,27.20
2019-05-07T15:44:45.266Z,27.20
2019-05-07T15:47:31.684Z,27.10
2019-05-07T15:50:01.611Z,26.90
2019-05-07T15:52:59.216Z,26.80
2019-05-07T15:55:35.040Z,26.60
2019-05-07T15:58:05.850Z,26.50
2019-05-07T16:01:16.258Z,27.10
2019-05-07T16:03:52.073Z,27.20
2019-05-07T16:06:48.350Z,27.40
2019-05-07T16:09:44.022Z,27.60
2019-05-07T16:12:22.658Z,28.00
2019-05-07T16:15:22.831Z,28.40
2019-05-07T16:17:58.824Z,28.60
2019-05-07T16:20:52.257Z,28.80
2019-05-07T16:23:32.592Z,29.00
2019-05-07T16:26:05.414Z,29.20
2019-05-07T16:28:35.499Z,29.30
2019-05-07T16:34:06.833Z,29.50
2019-05-07T16:37:18.463Z,29.70
2019-05-07T16:39:53.193Z,29.70
2019-05-07T16:54:45.208Z,30.50
2019-05-07T16:57:19.110Z,31.00
2019-05-07T16:59:52.296Z,31.10
2019-05-07T17:05:22.915Z,31.60
2019-05-07T17:07:57.544Z,31.70
2019-05-07T17:10:27.216Z,31.90
2019-05-07T17:12:56.834Z,32.00
2019-05-07T17:15:26.461Z,32.10
2019-05-07T17:18:02.991Z,32.10
2019-05-07T17:20:32.993Z,32.30
2019-05-07T17:23:03.130Z,32.50
2019-05-07T17:25:42.642Z,32.50
2019-05-07T17:28:12.766Z,32.70
2019-05-07T17:30:47.716Z,32.90
2019-05-07T17:33:18.978Z,33.00
2019-05-07T17:36:02.275Z,33.30
2019-05-07T17:38:32.194Z,33.40
2019-05-07T17:41:12.906Z,33.60
2019-05-07T17:43:36.259Z,33.70
2019-05-07T17:49:53.860Z,33.70
2019-05-07T17:52:48.525Z,33.90
2019-05-07T17:55:50.451Z,34.00
2019-05-07T17:58:48.699Z,34.20
2019-05-07T18:04:54.698Z,34.40
2019-05-07T18:07:21.371Z,35.10
2019-05-07T18:09:50.872Z,35.90
2019-05-07T18:12:23.160Z,36.90
2019-05-07T18:14:53.018Z,37.40
2019-05-07T18:17:39.303Z,38.20
2019-05-07T18:20:34.472Z,38.90
2019-05-07T18:23:16.277Z,39.30
2019-05-07T18:26:30.421Z,39.60
2019-05-07T18:30:02.815Z,39.90
2019-05-07T18:32:54.602Z,40.00
2019-05-07T18:40:12.740Z,40.30
2019-05-07T18:42:48.421Z,40.40
2019-05-07T18:45:18.609Z,40.60
2019-05-07T18:48:12.023Z,41.20
2019-05-07T18:51:14.541Z,41.50
2019-05-07T18:53:47.093Z,41.90
2019-05-07T18:56:17.746Z,42.10
2019-05-07T18:58:47.652Z,42.30
2019-05-07T19:01:19.906Z,42.60
2019-05-07T19:03:52.556Z,42.70
2019-05-07T19:06:22.427Z,42.80
2019-05-07T19:08:53.586Z,42.90
2019-05-07T19:11:23.273Z,43.10
2019-05-07T19:14:51.784Z,43.30
2019-05-07T19:17:21.854Z,44.00
2019-05-07T19:19:53.215Z,43.40
2019-05-07T19:22:25.557Z,43.70
2019-05-07T19:24:54.842Z,43.80
2019-05-07T19:27:24.323Z,43.90
2019-05-07T19:29:59.594Z,44.00
2019-05-07T19:32:32.291Z,44.10
2019-05-07T19:35:02.090Z,44.30
2019-05-07T19:37:31.925Z,44.40
2019-05-07T19:40:02.145Z,44.50
2019-05-07T19:42:33.994Z,44.60
2019-05-07T19:45:03.342Z,44.70
2019-05-07T19:47:33.176Z,44.90
2019-05-07T19:50:08.328Z,45.10
2019-05-07T19:52:42.532Z,45.30
2019-05-07T19:55:11.826Z,45.30
2019-05-07T19:57:52.996Z,46.20
2019-05-07T20:00:23.092Z,45.60
2019-05-07T20:02:54.242Z,45.70
2019-05-07T20:05:23.622Z,45.80
2019-05-07T20:07:56.133Z,45.90
2019-05-07T20:10:33.059Z,46.00
2019-05-07T20:13:03.117Z,46.10
2019-05-07T20:15:32.773Z,46.10
2019-05-07T20:18:03.143Z,46.30
2019-05-07T20:20:33.698Z,46.40
2019-05-07T20:23:03.143Z,46.40
2019-05-07T20:25:46.717Z,46.40
2019-05-07T20:28:03.596Z,46.50
2019-05-07T20:30:33.109Z,46.70
2019-05-07T20:33:03.090Z,46.70
2019-05-07T20:35:32.675Z,46.80
2019-05-07T20:38:02.962Z,46.80
2019-05-07T20:40:32.681Z,46.90
2019-05-07T20:43:02.402Z,46.90
2019-05-07T20:45:33.818Z,47.00
2019-05-07T20:48:03.355Z,47.10
2019-05-07T20:50:33.824Z,47.30
2019-05-07T20:53:03.426Z,47.30
2019-05-07T20:55:44.081Z,47.50
2019-05-07T20:58:13.588Z,47.60
2019-05-07T21:00:45.022Z,47.60
2019-05-07T21:03:20.280Z,47.60
2019-05-07T21:05:53.097Z,47.70
2019-05-07T21:08:23.120Z,47.70
2019-05-07T21:10:53.618Z,47.80
2019-05-07T21:13:30.770Z,48.50
2019-05-07T21:15:55.655Z,47.90
2019-05-07T21:18:25.096Z,48.00
2019-05-07T21:20:54.439Z,48.10
2019-05-07T21:23:23.792Z,48.10
2019-05-07T21:25:53.321Z,48.20
2019-05-07T21:28:22.722Z,48.20
2019-05-07T21:30:52.437Z,48.30
2019-05-07T21:33:22.845Z,48.30
2019-05-07T21:35:52.594Z,48.30
2019-05-07T21:38:22.476Z,48.50
2019-05-07T21:40:54.364Z,48.60
2019-05-07T21:43:23.670Z,48.60
2019-05-07T21:45:53.180Z,48.60
2019-05-07T21:48:23.588Z,48.60
2019-05-07T21:50:53.210Z,48.60
2019-05-07T21:53:29.192Z,48.70
2019-05-07T21:56:28.994Z,48.70
2019-05-07T21:59:07.061Z,48.80
2019-05-07T22:01:43.406Z,48.70
2019-05-07T22:04:12.668Z,48.80
2019-05-07T22:06:42.829Z,48.90
2019-05-07T22:09:14.226Z,49.10
2019-05-07T22:11:43.502Z,49.10
2019-05-07T22:14:13.109Z,49.10
2019-05-07T22:16:42.664Z,49.20
2019-05-07T22:19:12.305Z,49.30
2019-05-07T22:21:43.196Z,49.30
2019-05-07T22:24:15.070Z,49.40
2019-05-07T22:26:43.691Z,49.40
2019-05-07T22:29:13.543Z,49.50
2019-05-07T22:32:07.573Z,49.70
2019-05-07T22:34:48.924Z,49.70
2019-05-07T22:37:18.403Z,49.70
2019-05-07T22:39:47.763Z,49.50
2019-05-07T22:42:17.188Z,49.70
2019-05-07T22:44:46.495Z,49.80
2019-05-07T22:47:19.233Z,49.80
2019-05-07T22:49:50.164Z,49.80
2019-05-07T22:52:38.566Z,50.10
2019-05-07T22:55:13.948Z,50.30
2019-05-07T22:57:47.651Z,50.20
2019-05-07T23:00:33.846Z,50.20
2019-05-07T23:03:03.217Z,50.30
2019-05-07T23:05:32.677Z,50.30
2019-05-07T23:08:05.681Z,50.50
2019-05-07T23:10:35.078Z,50.50
2019-05-07T23:13:04.462Z,50.70
2019-05-07T23:15:33.744Z,50.70
2019-05-07T23:18:04.484Z,50.80
2019-05-07T23:20:33.974Z,50.80
2019-05-07T23:23:04.278Z,50.90
2019-05-07T23:25:33.739Z,50.90
2019-05-07T23:28:05.526Z,51.00
2019-05-07T23:30:34.931Z,51.00
2019-05-07T23:33:04.237Z,51.00
2019-05-07T23:35:33.515Z,51.10
2019-05-07T23:38:02.822Z,51.10
2019-05-07T23:41:02.102Z,51.80
2019-05-07T23:43:31.364Z,51.10
2019-05-07T23:46:02.225Z,51.20
2019-05-07T23:48:32.232Z,51.20
2019-05-07T23:51:02.213Z,51.30
2019-05-07T23:53:31.570Z,51.30
2019-05-07T23:56:02.729Z,51.40
2019-05-07T23:58:32.659Z,51.40
